sensor_id;sensor_type;location;lat;lon;timestamp;pressure;altitude;pressure_sealevel;temperature;humidity
35435;BME280;21556;55.782;37.528;2023-06-22T00:00:50;99946.44;;;18.96;93.45
35435;BME280;21556;55.782;37.528;2023-06-22T00:03:18;99942.78;;;19.04;92.77
35435;BME280;21556;55.782;37.528;2023-06-22T00:05:45;99949.47;;;19.31;89.37
35435;BME280;21556;55.782;37.528;2023-06-22T00:08:14;99958.41;;;19.28;89.71
35435;BME280;21556;55.782;37.528;2023-06-22T00:10:46;99954.91;;;19.23;88.80
35435;BME280;21556;55.782;37.528;2023-06-22T00:13:14;99942.44;;;19.28;81.24
35435;BME280;21556;55.782;37.528;2023-06-22T00:15:41;99949.16;;;18.92;92.41
35435;BME280;21556;55.782;37.528;2023-06-22T00:18:09;99948.59;;;18.64;96.43
35435;BME280;21556;55.782;37.528;2023-06-22T00:20:35;99949.25;;;18.83;95.15
35435;BME280;21556;55.782;37.528;2023-06-22T00:23:04;99954.44;;;18.93;86.06
35435;BME280;21556;55.782;37.528;2023-06-22T00:25:37;99952.88;;;18.79;89.99
35435;BME280;21556;55.782;37.528;2023-06-22T00:28:04;99957.34;;;18.73;92.77
35435;BME280;21556;55.782;37.528;2023-06-22T00:30:31;99956.34;;;18.84;92.32
35435;BME280;21556;55.782;37.528;2023-06-22T00:32:58;99951.31;;;18.59;96.72
35435;BME280;21556;55.782;37.528;2023-06-22T00:35:25;99950.63;;;18.42;96.92
35435;BME280;21556;55.782;37.528;2023-06-22T00:37:59;99951.38;;;18.53;95.87
35435;BME280;21556;55.782;37.528;2023-06-22T00:40:32;99946.94;;;18.53;96.08
35435;BME280;21556;55.782;37.528;2023-06-22T00:42:59;99950.72;;;18.34;99.49
35435;BME280;21556;55.782;37.528;2023-06-22T00:45:27;99952.56;;;18.27;96.70
35435;BME280;21556;55.782;37.528;2023-06-22T00:47:56;99942.22;;;18.79;86.43
35435;BME280;21556;55.782;37.528;2023-06-22T00:50:25;99947.75;;;18.60;94.31
35435;BME280;21556;55.782;37.528;2023-06-22T00:52:54;99946.09;;;18.50;98.33
35435;BME280;21556;55.782;37.528;2023-06-22T00:55:23;99947.78;;;18.57;92.95
35435;BME280;21556;55.782;37.528;2023-06-22T00:57:49;99945.31;;;18.40;98.86
35435;BME280;21556;55.782;37.528;2023-06-22T01:00:16;99949.00;;;18.30;100.00
35435;BME280;21556;55.782;37.528;2023-06-22T01:02:46;99950.66;;;18.39;100.00
35435;BME280;21556;55.782;37.528;2023-06-22T01:05:14;99952.44;;;18.37;98.36
35435;BME280;21556;55.782;37.528;2023-06-22T01:13:10;99942.00;;;18.23;99.61
35435;BME280;21556;55.782;37.528;2023-06-22T01:18:13;99954.44;;;18.15;100.00
35435;BME280;21556;55.782;37.528;2023-06-22T01:20:40;99960.56;;;18.23;100.00
35435;BME280;21556;55.782;37.528;2023-06-22T01:29:04;99948.88;;;18.39;100.00
35435;BME280;21556;55.782;37.528;2023-06-22T01:31:32;99958.59;;;18.42;97.12
35435;BME280;21556;55.782;37.528;2023-06-22T01:34:02;99960.28;;;18.47;90.51
35435;BME280;21556;55.782;37.528;2023-06-22T01:36:30;99958.66;;;18.36;88.37
35435;BME280;21556;55.782;37.528;2023-06-22T01:38:57;99953.47;;;18.22;89.31
35435;BME280;21556;55.782;37.528;2023-06-22T01:41:25;99955.78;;;18.54;85.91
35435;BME280;21556;55.782;37.528;2023-06-22T01:43:53;99950.59;;;18.45;87.66
35435;BME280;21556;55.782;37.528;2023-06-22T01:46:20;99956.81;;;18.41;87.35
35435;BME280;21556;55.782;37.528;2023-06-22T01:48:47;99951.69;;;18.27;88.61
35435;BME280;21556;55.782;37.528;2023-06-22T01:51:13;99949.53;;;18.58;85.58
35435;BME280;21556;55.782;37.528;2023-06-22T01:53:40;99957.66;;;18.46;82.98
35435;BME280;21556;55.782;37.528;2023-06-22T01:56:06;99954.69;;;18.73;82.63
35435;BME280;21556;55.782;37.528;2023-06-22T01:58:44;99959.56;;;18.33;100.00
35435;BME280;21556;55.782;37.528;2023-06-22T02:01:12;99964.81;;;18.39;96.36
35435;BME280;21556;55.782;37.528;2023-06-22T02:03:49;99959.47;;;18.42;88.42
35435;BME280;21556;55.782;37.528;2023-06-22T02:06:24;99955.94;;;18.40;86.83
35435;BME280;21556;55.782;37.528;2023-06-22T02:08:59;99949.09;;;18.21;87.45
35435;BME280;21556;55.782;37.528;2023-06-22T02:11:28;99953.03;;;18.63;83.10
35435;BME280;21556;55.782;37.528;2023-06-22T02:13:57;99947.72;;;18.63;78.54
35435;BME280;21556;55.782;37.528;2023-06-22T02:16:24;99947.59;;;18.75;77.52
35435;BME280;21556;55.782;37.528;2023-06-22T02:18:51;99944.47;;;18.37;84.50
35435;BME280;21556;55.782;37.528;2023-06-22T02:21:20;99938.84;;;18.64;81.63
35435;BME280;21556;55.782;37.528;2023-06-22T02:23:46;99930.25;;;18.41;83.94
35435;BME280;21556;55.782;37.528;2023-06-22T02:26:13;99927.38;;;18.61;81.43
35435;BME280;21556;55.782;37.528;2023-06-22T02:28:39;99930.72;;;18.78;80.50
35435;BME280;21556;55.782;37.528;2023-06-22T02:31:05;99926.00;;;18.98;77.28
35435;BME280;21556;55.782;37.528;2023-06-22T02:33:31;99926.44;;;18.65;80.65
35435;BME280;21556;55.782;37.528;2023-06-22T02:35:57;99929.97;;;18.65;83.57
35435;BME280;21556;55.782;37.528;2023-06-22T02:38:23;99925.72;;;18.50;86.74
35435;BME280;21556;55.782;37.528;2023-06-22T02:40:52;99929.34;;;18.43;91.12
35435;BME280;21556;55.782;37.528;2023-06-22T02:43:19;99918.75;;;18.40;91.04
35435;BME280;21556;55.782;37.528;2023-06-22T02:45:45;99920.28;;;18.61;91.15
35435;BME280;21556;55.782;37.528;2023-06-22T02:48:11;99926.47;;;18.63;89.83
35435;BME280;21556;55.782;37.528;2023-06-22T02:50:37;99917.50;;;18.69;86.77
35435;BME280;21556;55.782;37.528;2023-06-22T02:53:06;99916.72;;;18.62;86.15
35435;BME280;21556;55.782;37.528;2023-06-22T02:55:36;99909.00;;;18.41;85.47
35435;BME280;21556;55.782;37.528;2023-06-22T02:58:02;99911.50;;;18.56;86.01
35435;BME280;21556;55.782;37.528;2023-06-22T03:00:33;99915.19;;;18.43;88.32
35435;BME280;21556;55.782;37.528;2023-06-22T03:03:00;99914.31;;;18.42;92.14
35435;BME280;21556;55.782;37.528;2023-06-22T03:05:26;99907.75;;;18.69;86.79
35435;BME280;21556;55.782;37.528;2023-06-22T03:07:53;99914.19;;;18.53;88.86
35435;BME280;21556;55.782;37.528;2023-06-22T03:10:19;99911.28;;;18.74;86.48
35435;BME280;21556;55.782;37.528;2023-06-22T03:12:46;99904.97;;;18.83;81.71
35435;BME280;21556;55.782;37.528;2023-06-22T03:15:12;99907.66;;;18.80;82.92
35435;BME280;21556;55.782;37.528;2023-06-22T03:17:39;99908.03;;;18.48;86.71
35435;BME280;21556;55.782;37.528;2023-06-22T03:20:09;99894.50;;;18.66;85.00
35435;BME280;21556;55.782;37.528;2023-06-22T03:22:41;99897.84;;;18.85;84.42
35435;BME280;21556;55.782;37.528;2023-06-22T03:25:09;99882.59;;;18.98;84.49
35435;BME280;21556;55.782;37.528;2023-06-22T03:27:46;99879.41;;;18.70;86.72
35435;BME280;21556;55.782;37.528;2023-06-22T03:30:12;99887.44;;;18.65;87.49
35435;BME280;21556;55.782;37.528;2023-06-22T03:32:38;99883.88;;;18.71;86.84
35435;BME280;21556;55.782;37.528;2023-06-22T03:35:06;99889.09;;;18.77;86.23
35435;BME280;21556;55.782;37.528;2023-06-22T03:37:35;99887.97;;;18.93;84.89
35435;BME280;21556;55.782;37.528;2023-06-22T03:40:02;99889.88;;;18.84;85.41
35435;BME280;21556;55.782;37.528;2023-06-22T03:42:35;99889.66;;;19.00;84.54
35435;BME280;21556;55.782;37.528;2023-06-22T03:45:03;99886.28;;;18.89;86.12
35435;BME280;21556;55.782;37.528;2023-06-22T03:47:34;99877.09;;;19.09;85.46
35435;BME280;21556;55.782;37.528;2023-06-22T03:50:01;99881.44;;;19.17;83.82
35435;BME280;21556;55.782;37.528;2023-06-22T03:52:34;99877.28;;;18.98;86.15
35435;BME280;21556;55.782;37.528;2023-06-22T03:55:00;99874.13;;;18.68;91.01
35435;BME280;21556;55.782;37.528;2023-06-22T03:57:25;99878.19;;;18.97;87.82
35435;BME280;21556;55.782;37.528;2023-06-22T03:59:51;99875.94;;;19.27;84.20
35435;BME280;21556;55.782;37.528;2023-06-22T04:02:17;99863.69;;;19.16;86.17
35435;BME280;21556;55.782;37.528;2023-06-22T04:04:43;99867.19;;;19.21;85.96
35435;BME280;21556;55.782;37.528;2023-06-22T04:07:09;99877.16;;;19.06;89.37
35435;BME280;21556;55.782;37.528;2023-06-22T04:09:35;99867.88;;;19.31;86.29
35435;BME280;21556;55.782;37.528;2023-06-22T04:12:02;99868.66;;;19.38;85.52
35435;BME280;21556;55.782;37.528;2023-06-22T04:14:28;99850.38;;;19.70;81.58
35435;BME280;21556;55.782;37.528;2023-06-22T04:16:53;99867.53;;;19.54;81.59
35435;BME280;21556;55.782;37.528;2023-06-22T04:19:19;99859.25;;;19.73;80.63
35435;BME280;21556;55.782;37.528;2023-06-22T04:21:45;99860.03;;;19.78;80.98
35435;BME280;21556;55.782;37.528;2023-06-22T04:24:14;99858.13;;;19.84;81.67
35435;BME280;21556;55.782;37.528;2023-06-22T04:26:41;99854.44;;;19.91;80.69
35435;BME280;21556;55.782;37.528;2023-06-22T04:29:08;99850.44;;;20.15;79.16
35435;BME280;21556;55.782;37.528;2023-06-22T04:31:37;99848.50;;;19.77;83.72
35435;BME280;21556;55.782;37.528;2023-06-22T04:34:05;99850.88;;;19.92;84.58
35435;BME280;21556;55.782;37.528;2023-06-22T04:36:40;99852.06;;;20.23;84.54
35435;BME280;21556;55.782;37.528;2023-06-22T04:39:10;99847.16;;;20.01;85.57
35435;BME280;21556;55.782;37.528;2023-06-22T04:41:38;99847.19;;;20.00;82.00
35435;BME280;21556;55.782;37.528;2023-06-22T04:44:18;99841.28;;;19.82;85.01
35435;BME280;21556;55.782;37.528;2023-06-22T04:46:54;99837.19;;;20.11;82.53
35435;BME280;21556;55.782;37.528;2023-06-22T04:49:26;99837.13;;;20.15;80.76
35435;BME280;21556;55.782;37.528;2023-06-22T04:51:59;99839.91;;;20.51;74.68
35435;BME280;21556;55.782;37.528;2023-06-22T04:54:25;99840.78;;;20.53;75.86
35435;BME280;21556;55.782;37.528;2023-06-22T04:56:51;99845.09;;;20.15;81.42
35435;BME280;21556;55.782;37.528;2023-06-22T04:59:23;99843.31;;;20.14;85.14
35435;BME280;21556;55.782;37.528;2023-06-22T05:01:54;99855.53;;;20.26;81.98
35435;BME280;21556;55.782;37.528;2023-06-22T05:04:22;99841.03;;;20.41;82.11
35435;BME280;21556;55.782;37.528;2023-06-22T05:06:49;99845.59;;;20.34;81.19
35435;BME280;21556;55.782;37.528;2023-06-22T05:09:19;99842.44;;;20.59;79.08
35435;BME280;21556;55.782;37.528;2023-06-22T05:11:45;99847.78;;;20.59;80.32
35435;BME280;21556;55.782;37.528;2023-06-22T05:14:11;99841.88;;;20.83;77.21
35435;BME280;21556;55.782;37.528;2023-06-22T05:16:38;99840.06;;;20.85;79.87
35435;BME280;21556;55.782;37.528;2023-06-22T05:19:04;99847.91;;;20.51;84.17
35435;BME280;21556;55.782;37.528;2023-06-22T05:21:30;99849.06;;;20.80;80.58
35435;BME280;21556;55.782;37.528;2023-06-22T05:23:57;99850.97;;;20.73;81.67
35435;BME280;21556;55.782;37.528;2023-06-22T05:26:30;99857.22;;;20.72;84.24
35435;BME280;21556;55.782;37.528;2023-06-22T05:28:57;99837.06;;;20.99;80.95
35435;BME280;21556;55.782;37.528;2023-06-22T05:31:23;99836.09;;;21.02;82.06
35435;BME280;21556;55.782;37.528;2023-06-22T05:33:51;99836.34;;;20.91;84.07
35435;BME280;21556;55.782;37.528;2023-06-22T05:36:17;99831.63;;;21.02;84.08
35435;BME280;21556;55.782;37.528;2023-06-22T05:38:45;99834.59;;;20.90;85.19
35435;BME280;21556;55.782;37.528;2023-06-22T05:41:11;99830.50;;;21.12;82.93
35435;BME280;21556;55.782;37.528;2023-06-22T05:43:37;99835.31;;;21.35;82.76
35435;BME280;21556;55.782;37.528;2023-06-22T05:46:04;99839.63;;;21.02;83.21
35435;BME280;21556;55.782;37.528;2023-06-22T05:48:30;99841.44;;;21.02;83.46
35435;BME280;21556;55.782;37.528;2023-06-22T05:50:56;99843.13;;;21.06;84.02
35435;BME280;21556;55.782;37.528;2023-06-22T05:53:23;99842.53;;;21.30;82.25
35435;BME280;21556;55.782;37.528;2023-06-22T05:55:49;99838.41;;;21.17;83.43
35435;BME280;21556;55.782;37.528;2023-06-22T05:58:15;99837.03;;;21.38;82.32
35435;BME280;21556;55.782;37.528;2023-06-22T06:01:15;99837.84;;;21.74;77.44
35435;BME280;21556;55.782;37.528;2023-06-22T06:04:06;99839.75;;;21.36;79.82
35435;BME280;21556;55.782;37.528;2023-06-22T06:06:35;99833.19;;;21.82;75.85
35435;BME280;21556;55.782;37.528;2023-06-22T06:09:05;99834.72;;;22.24;75.11
35435;BME280;21556;55.782;37.528;2023-06-22T06:11:33;99826.88;;;22.49;71.23
35435;BME280;21556;55.782;37.528;2023-06-22T06:13:59;99823.91;;;22.58;68.87
35435;BME280;21556;55.782;37.528;2023-06-22T06:16:25;99827.66;;;22.52;69.00
35435;BME280;21556;55.782;37.528;2023-06-22T06:18:51;99838.91;;;22.62;66.96
35435;BME280;21556;55.782;37.528;2023-06-22T06:21:19;99839.81;;;22.63;66.41
35435;BME280;21556;55.782;37.528;2023-06-22T06:23:47;99828.31;;;22.89;66.17
35435;BME280;21556;55.782;37.528;2023-06-22T06:26:13;99828.88;;;23.00;65.95
35435;BME280;21556;55.782;37.528;2023-06-22T06:28:43;99827.75;;;23.07;63.41
35435;BME280;21556;55.782;37.528;2023-06-22T06:31:09;99828.13;;;22.95;63.45
35435;BME280;21556;55.782;37.528;2023-06-22T06:33:36;99834.03;;;23.06;61.50
35435;BME280;21556;55.782;37.528;2023-06-22T06:36:03;99822.63;;;23.52;58.43
35435;BME280;21556;55.782;37.528;2023-06-22T06:38:32;99821.66;;;23.55;57.89
35435;BME280;21556;55.782;37.528;2023-06-22T06:41:01;99819.69;;;23.60;56.40
35435;BME280;21556;55.782;37.528;2023-06-22T06:43:27;99829.38;;;23.38;55.28
35435;BME280;21556;55.782;37.528;2023-06-22T06:45:54;99833.66;;;23.43;55.83
35435;BME280;21556;55.782;37.528;2023-06-22T06:48:20;99824.56;;;23.75;53.18
35435;BME280;21556;55.782;37.528;2023-06-22T06:50:46;99816.69;;;24.19;53.40
35435;BME280;21556;55.782;37.528;2023-06-22T06:53:13;99817.09;;;24.32;52.22
35435;BME280;21556;55.782;37.528;2023-06-22T06:55:42;99815.34;;;24.08;53.97
35435;BME280;21556;55.782;37.528;2023-06-22T06:58:17;99812.94;;;24.00;52.51
35435;BME280;21556;55.782;37.528;2023-06-22T07:00:43;99825.75;;;23.92;50.04
35435;BME280;21556;55.782;37.528;2023-06-22T07:03:10;99819.00;;;24.05;51.32
35435;BME280;21556;55.782;37.528;2023-06-22T07:05:39;99821.91;;;23.99;51.42
35435;BME280;21556;55.782;37.528;2023-06-22T07:08:06;99821.03;;;23.73;51.27
35435;BME280;21556;55.782;37.528;2023-06-22T07:10:35;99818.28;;;24.00;51.38
35435;BME280;21556;55.782;37.528;2023-06-22T07:13:01;99824.69;;;23.96;50.60
35435;BME280;21556;55.782;37.528;2023-06-22T07:15:27;99821.91;;;23.74;52.46
35435;BME280;21556;55.782;37.528;2023-06-22T07:17:53;99820.50;;;23.62;53.28
35435;BME280;21556;55.782;37.528;2023-06-22T07:20:19;99819.97;;;23.79;52.71
35435;BME280;21556;55.782;37.528;2023-06-22T07:22:45;99820.47;;;24.14;52.77
35435;BME280;21556;55.782;37.528;2023-06-22T07:25:11;99810.06;;;23.81;53.63
35435;BME280;21556;55.782;37.528;2023-06-22T07:27:56;99812.22;;;24.20;52.76
35435;BME280;21556;55.782;37.528;2023-06-22T07:30:22;99811.84;;;24.29;52.46
35435;BME280;21556;55.782;37.528;2023-06-22T07:32:48;99807.50;;;24.73;50.25
35435;BME280;21556;55.782;37.528;2023-06-22T07:35:14;99805.22;;;24.63;50.52
35435;BME280;21556;55.782;37.528;2023-06-22T07:37:42;99792.50;;;24.90;51.19
35435;BME280;21556;55.782;37.528;2023-06-22T07:40:08;99798.25;;;24.81;48.40
35435;BME280;21556;55.782;37.528;2023-06-22T07:42:35;99812.00;;;24.49;50.94
35435;BME280;21556;55.782;37.528;2023-06-22T07:45:02;99808.97;;;24.59;49.74
35435;BME280;21556;55.782;37.528;2023-06-22T07:47:32;99800.44;;;24.71;50.08
35435;BME280;21556;55.782;37.528;2023-06-22T07:50:02;99802.81;;;24.32;50.31
35435;BME280;21556;55.782;37.528;2023-06-22T07:52:32;99797.78;;;24.47;50.81
35435;BME280;21556;55.782;37.528;2023-06-22T07:54:58;99795.25;;;24.43;50.18
35435;BME280;21556;55.782;37.528;2023-06-22T07:57:24;99796.44;;;24.81;49.36
35435;BME280;21556;55.782;37.528;2023-06-22T07:59:58;99796.44;;;24.59;50.11
35435;BME280;21556;55.782;37.528;2023-06-22T08:02:25;99798.28;;;24.34;51.65
35435;BME280;21556;55.782;37.528;2023-06-22T08:04:52;99799.25;;;24.78;48.91
35435;BME280;21556;55.782;37.528;2023-06-22T08:07:18;99786.66;;;24.80;48.54
35435;BME280;21556;55.782;37.528;2023-06-22T08:09:48;99781.75;;;25.34;47.68
35435;BME280;21556;55.782;37.528;2023-06-22T08:12:15;99784.47;;;25.75;48.06
35435;BME280;21556;55.782;37.528;2023-06-22T08:14:42;99780.03;;;25.94;44.95
35435;BME280;21556;55.782;37.528;2023-06-22T08:17:10;99780.22;;;26.29;43.72
35435;BME280;21556;55.782;37.528;2023-06-22T08:19:37;99783.84;;;26.28;43.06
35435;BME280;21556;55.782;37.528;2023-06-22T08:22:03;99780.06;;;26.32;42.79
35435;BME280;21556;55.782;37.528;2023-06-22T08:24:29;99782.25;;;26.24;42.81
35435;BME280;21556;55.782;37.528;2023-06-22T08:26:56;99780.06;;;26.32;43.13
35435;BME280;21556;55.782;37.528;2023-06-22T08:29:22;99778.28;;;26.70;42.58
35435;BME280;21556;55.782;37.528;2023-06-22T08:31:48;99759.19;;;27.13;41.07
35435;BME280;21556;55.782;37.528;2023-06-22T08:34:14;99758.94;;;27.17;39.49
35435;BME280;21556;55.782;37.528;2023-06-22T08:36:40;99762.72;;;27.30;39.53
35435;BME280;21556;55.782;37.528;2023-06-22T08:39:10;99761.69;;;27.85;37.96
35435;BME280;21556;55.782;37.528;2023-06-22T08:41:37;99764.06;;;27.91;37.43
35435;BME280;21556;55.782;37.528;2023-06-22T08:44:03;99756.44;;;28.48;37.10
35435;BME280;21556;55.782;37.528;2023-06-22T08:46:30;99747.63;;;28.92;36.30
35435;BME280;21556;55.782;37.528;2023-06-22T08:48:58;99738.34;;;30.15;34.15
35435;BME280;21556;55.782;37.528;2023-06-22T08:51:25;99740.41;;;30.26;32.35
35435;BME280;21556;55.782;37.528;2023-06-22T08:53:51;99749.13;;;29.58;33.65
35435;BME280;21556;55.782;37.528;2023-06-22T08:56:17;99741.03;;;29.58;33.46
35435;BME280;21556;55.782;37.528;2023-06-22T08:58:43;99735.34;;;30.06;32.92
35435;BME280;21556;55.782;37.528;2023-06-22T09:01:09;99731.41;;;30.40;32.02
35435;BME280;21556;55.782;37.528;2023-06-22T09:03:35;99741.63;;;29.78;32.74
35435;BME280;21556;55.782;37.528;2023-06-22T09:06:03;99738.53;;;29.84;32.74
35435;BME280;21556;55.782;37.528;2023-06-22T09:08:29;99727.84;;;30.66;31.69
35435;BME280;21556;55.782;37.528;2023-06-22T09:10:55;99723.59;;;30.21;31.76
35435;BME280;21556;55.782;37.528;2023-06-22T09:13:21;99718.94;;;30.64;31.43
35435;BME280;21556;55.782;37.528;2023-06-22T09:15:48;99720.00;;;29.78;32.40
35435;BME280;21556;55.782;37.528;2023-06-22T09:18:14;99712.19;;;29.87;31.92
35435;BME280;21556;55.782;37.528;2023-06-22T09:20:42;99712.19;;;30.57;30.66
35435;BME280;21556;55.782;37.528;2023-06-22T09:23:08;99722.91;;;30.17;30.98
35435;BME280;21556;55.782;37.528;2023-06-22T09:25:34;99727.91;;;30.09;31.26
35435;BME280;21556;55.782;37.528;2023-06-22T09:28:00;99722.03;;;30.17;31.59
35435;BME280;21556;55.782;37.528;2023-06-22T09:30:26;99722.25;;;30.00;31.58
35435;BME280;21556;55.782;37.528;2023-06-22T09:32:52;99719.13;;;29.91;31.74
35435;BME280;21556;55.782;37.528;2023-06-22T09:35:18;99723.00;;;30.30;31.12
35435;BME280;21556;55.782;37.528;2023-06-22T09:37:44;99717.34;;;30.62;31.04
35435;BME280;21556;55.782;37.528;2023-06-22T09:40:10;99698.78;;;30.56;31.40
35435;BME280;21556;55.782;37.528;2023-06-22T09:42:38;99717.53;;;29.14;33.71
35435;BME280;21556;55.782;37.528;2023-06-22T09:45:05;99715.84;;;28.82;34.62
35435;BME280;21556;55.782;37.528;2023-06-22T09:47:33;99710.56;;;29.40;32.94
35435;BME280;21556;55.782;37.528;2023-06-22T09:49:59;99700.13;;;29.64;32.78
35435;BME280;21556;55.782;37.528;2023-06-22T09:52:26;99711.34;;;29.42;33.03
35435;BME280;21556;55.782;37.528;2023-06-22T09:54:52;99704.06;;;29.87;32.35
35435;BME280;21556;55.782;37.528;2023-06-22T09:57:20;99692.50;;;30.55;31.74
35435;BME280;21556;55.782;37.528;2023-06-22T09:59:50;99698.28;;;29.65;32.85
35435;BME280;21556;55.782;37.528;2023-06-22T10:02:16;99711.50;;;29.84;32.35
35435;BME280;21556;55.782;37.528;2023-06-22T10:04:42;99698.16;;;30.38;31.78
35435;BME280;21556;55.782;37.528;2023-06-22T10:07:08;99699.63;;;30.15;31.79
35435;BME280;21556;55.782;37.528;2023-06-22T10:09:34;99680.97;;;31.46;30.63
35435;BME280;21556;55.782;37.528;2023-06-22T10:12:00;99677.06;;;32.01;29.54
35435;BME280;21556;55.782;37.528;2023-06-22T10:14:26;99676.53;;;31.70;29.79
35435;BME280;21556;55.782;37.528;2023-06-22T10:16:55;99666.22;;;31.75;29.87
35435;BME280;21556;55.782;37.528;2023-06-22T10:19:22;99673.09;;;30.49;31.30
35435;BME280;21556;55.782;37.528;2023-06-22T10:21:48;99676.63;;;30.08;32.23
35435;BME280;21556;55.782;37.528;2023-06-22T10:24:14;99657.84;;;31.27;30.40
35435;BME280;21556;55.782;37.528;2023-06-22T10:26:40;99657.13;;;31.63;30.74
35435;BME280;21556;55.782;37.528;2023-06-22T10:29:06;99653.31;;;31.66;30.10
35435;BME280;21556;55.782;37.528;2023-06-22T10:31:35;99652.81;;;30.96;31.15
35435;BME280;21556;55.782;37.528;2023-06-22T10:34:01;99647.31;;;31.74;31.12
35435;BME280;21556;55.782;37.528;2023-06-22T10:36:27;99645.50;;;32.00;30.04
35435;BME280;21556;55.782;37.528;2023-06-22T10:38:57;99642.78;;;31.61;30.35
35435;BME280;21556;55.782;37.528;2023-06-22T10:41:28;99640.97;;;31.49;30.24
35435;BME280;21556;55.782;37.528;2023-06-22T10:43:56;99632.28;;;31.31;30.51
35435;BME280;21556;55.782;37.528;2023-06-22T10:46:24;99638.91;;;31.40;30.84
35435;BME280;21556;55.782;37.528;2023-06-22T10:48:52;99636.81;;;31.95;29.68
35435;BME280;21556;55.782;37.528;2023-06-22T10:51:20;99641.50;;;31.54;30.06
35435;BME280;21556;55.782;37.528;2023-06-22T10:53:47;99626.97;;;31.68;29.46
35435;BME280;21556;55.782;37.528;2023-06-22T10:56:14;99632.94;;;30.82;31.16
35435;BME280;21556;55.782;37.528;2023-06-22T10:58:40;99629.91;;;30.60;31.62
35435;BME280;21556;55.782;37.528;2023-06-22T11:01:06;99627.34;;;30.71;31.46
35435;BME280;21556;55.782;37.528;2023-06-22T11:03:31;99629.78;;;30.76;31.58
35435;BME280;21556;55.782;37.528;2023-06-22T11:05:57;99625.66;;;31.48;30.11
35435;BME280;21556;55.782;37.528;2023-06-22T11:08:23;99615.59;;;31.50;30.48
35435;BME280;21556;55.782;37.528;2023-06-22T11:10:51;99617.88;;;30.24;31.31
35435;BME280;21556;55.782;37.528;2023-06-22T11:13:17;99620.22;;;30.02;32.03
35435;BME280;21556;55.782;37.528;2023-06-22T11:15:43;99616.13;;;30.50;31.73
35435;BME280;21556;55.782;37.528;2023-06-22T11:18:09;99613.50;;;29.80;32.44
35435;BME280;21556;55.782;37.528;2023-06-22T11:20:35;99614.47;;;29.79;33.01
35435;BME280;21556;55.782;37.528;2023-06-22T11:23:05;99610.50;;;29.42;33.42
35435;BME280;21556;55.782;37.528;2023-06-22T11:25:32;99611.06;;;29.47;34.08
35435;BME280;21556;55.782;37.528;2023-06-22T11:28:03;99615.63;;;28.72;34.83
35435;BME280;21556;55.782;37.528;2023-06-22T11:30:30;99612.16;;;28.70;35.66
35435;BME280;21556;55.782;37.528;2023-06-22T11:32:58;99604.28;;;29.11;34.99
35435;BME280;21556;55.782;37.528;2023-06-22T11:35:25;99597.34;;;29.07;34.99
35435;BME280;21556;55.782;37.528;2023-06-22T11:37:51;99599.75;;;28.36;35.63
35435;BME280;21556;55.782;37.528;2023-06-22T11:40:16;99599.66;;;28.69;35.40
35435;BME280;21556;55.782;37.528;2023-06-22T11:42:43;99598.81;;;28.52;35.94
35435;BME280;21556;55.782;37.528;2023-06-22T11:45:09;99594.81;;;28.28;36.11
35435;BME280;21556;55.782;37.528;2023-06-22T11:47:35;99594.13;;;28.08;36.67
35435;BME280;21556;55.782;37.528;2023-06-22T11:50:02;99585.84;;;27.96;37.93
35435;BME280;21556;55.782;37.528;2023-06-22T11:52:29;99591.63;;;27.90;38.16
35435;BME280;21556;55.782;37.528;2023-06-22T11:54:55;99587.59;;;27.81;38.26
35435;BME280;21556;55.782;37.528;2023-06-22T11:57:21;99574.91;;;28.61;36.97
35435;BME280;21556;55.782;37.528;2023-06-22T11:59:47;99571.28;;;28.62;37.53
35435;BME280;21556;55.782;37.528;2023-06-22T12:02:13;99568.59;;;29.06;36.73
35435;BME280;21556;55.782;37.528;2023-06-22T12:04:38;99566.59;;;29.24;35.20
35435;BME280;21556;55.782;37.528;2023-06-22T12:07:04;99553.06;;;28.79;36.58
35435;BME280;21556;55.782;37.528;2023-06-22T12:09:30;99555.59;;;29.13;35.41
35435;BME280;21556;55.782;37.528;2023-06-22T12:11:56;99552.78;;;29.29;35.27
35435;BME280;21556;55.782;37.528;2023-06-22T12:14:22;99552.00;;;29.12;35.40
35435;BME280;21556;55.782;37.528;2023-06-22T12:16:48;99555.97;;;29.21;35.38
35435;BME280;21556;55.782;37.528;2023-06-22T12:19:14;99549.31;;;29.26;35.49
35435;BME280;21556;55.782;37.528;2023-06-22T12:21:40;99552.59;;;29.32;34.89
35435;BME280;21556;55.782;37.528;2023-06-22T12:24:06;99546.50;;;29.42;34.81
35435;BME280;21556;55.782;37.528;2023-06-22T12:26:32;99539.16;;;29.16;35.32
35435;BME280;21556;55.782;37.528;2023-06-22T12:28:58;99536.00;;;29.09;35.89
35435;BME280;21556;55.782;37.528;2023-06-22T12:31:24;99528.38;;;29.01;36.18
35435;BME280;21556;55.782;37.528;2023-06-22T12:33:50;99530.34;;;28.69;37.03
35435;BME280;21556;55.782;37.528;2023-06-22T12:36:15;99531.72;;;28.30;37.76
35435;BME280;21556;55.782;37.528;2023-06-22T12:38:42;99522.25;;;28.84;35.78
35435;BME280;21556;55.782;37.528;2023-06-22T12:41:08;99530.97;;;29.03;35.43
35435;BME280;21556;55.782;37.528;2023-06-22T12:43:33;99515.97;;;28.83;35.40
35435;BME280;21556;55.782;37.528;2023-06-22T12:45:59;99517.09;;;28.65;35.44
35435;BME280;21556;55.782;37.528;2023-06-22T12:48:26;99514.94;;;28.25;35.99
35435;BME280;21556;55.782;37.528;2023-06-22T12:50:53;99514.59;;;27.86;37.30
35435;BME280;21556;55.782;37.528;2023-06-22T12:53:19;99517.00;;;27.90;37.22
35435;BME280;21556;55.782;37.528;2023-06-22T12:55:44;99513.13;;;28.26;36.37
35435;BME280;21556;55.782;37.528;2023-06-22T12:58:10;99509.69;;;27.92;37.26
35435;BME280;21556;55.782;37.528;2023-06-22T13:00:38;99513.34;;;28.07;37.03
35435;BME280;21556;55.782;37.528;2023-06-22T13:03:04;99512.28;;;28.10;36.36
35435;BME280;21556;55.782;37.528;2023-06-22T13:05:30;99510.38;;;28.12;35.09